sensor_id;sensor_type;location;lat;lon;timestamp;P1;durP1;ratioP1;P2;durP2;ratioP2
84355;SDS011;74539;43.518;1.504;2024-01-27T00:01:33;5.28;;;3.80;;
84355;SDS011;74539;43.518;1.504;2024-01-27T00:04:00;7.60;;;4.28;;
84355;SDS011;74539;43.518;1.504;2024-01-27T00:06:26;6.13;;;4.25;;
84355;SDS011;74539;43.518;1.504;2024-01-27T00:08:51;6.75;;;4.15;;
84355;SDS011;74539;43.518;1.504;2024-01-27T00:11:17;7.07;;;4.50;;
84355;SDS011;74539;43.518;1.504;2024-01-27T00:13:42;7.00;;;4.50;;
84355;SDS011;74539;43.518;1.504;2024-01-27T00:16:08;6.03;;;3.80;;
84355;SDS011;74539;43.518;1.504;2024-01-27T00:18:37;7.53;;;4.35;;
84355;SDS011;74539;43.518;1.504;2024-01-27T00:21:03;6.22;;;4.10;;
84355;SDS011;74539;43.518;1.504;2024-01-27T00:23:29;5.88;;;4.28;;
84355;SDS011;74539;43.518;1.504;2024-01-27T00:25:55;5.80;;;4.20;;
84355;SDS011;74539;43.518;1.504;2024-01-27T00:28:20;7.25;;;4.43;;
84355;SDS011;74539;43.518;1.504;2024-01-27T00:30:46;6.63;;;4.30;;
84355;SDS011;74539;43.518;1.504;2024-01-27T00:33:11;6.75;;;4.47;;
84355;SDS011;74539;43.518;1.504;2024-01-27T00:35:37;6.88;;;4.70;;
84355;SDS011;74539;43.518;1.504;2024-01-27T00:38:02;5.25;;;3.97;;
84355;SDS011;74539;43.518;1.504;2024-01-27T00:40:28;8.23;;;5.10;;
84355;SDS011;74539;43.518;1.504;2024-01-27T00:42:54;7.28;;;4.15;;
84355;SDS011;74539;43.518;1.504;2024-01-27T00:45:19;6.72;;;4.30;;
84355;SDS011;74539;43.518;1.504;2024-01-27T00:47:47;7.55;;;4.70;;
84355;SDS011;74539;43.518;1.504;2024-01-27T00:50:14;6.85;;;4.45;;
84355;SDS011;74539;43.518;1.504;2024-01-27T00:52:40;6.65;;;4.55;;
84355;SDS011;74539;43.518;1.504;2024-01-27T00:55:05;6.97;;;4.65;;
84355;SDS011;74539;43.518;1.504;2024-01-27T00:57:31;7.35;;;4.82;;
84355;SDS011;74539;43.518;1.504;2024-01-27T00:59:56;7.18;;;4.55;;
84355;SDS011;74539;43.518;1.504;2024-01-27T01:02:22;7.15;;;4.78;;
84355;SDS011;74539;43.518;1.504;2024-01-27T01:04:47;6.82;;;4.43;;
84355;SDS011;74539;43.518;1.504;2024-01-27T01:07:13;6.65;;;4.47;;
84355;SDS011;74539;43.518;1.504;2024-01-27T01:09:38;7.13;;;4.97;;
84355;SDS011;74539;43.518;1.504;2024-01-27T01:12:04;6.85;;;4.38;;
84355;SDS011;74539;43.518;1.504;2024-01-27T01:14:30;6.57;;;4.35;;
84355;SDS011;74539;43.518;1.504;2024-01-27T01:16:55;8.02;;;4.63;;
84355;SDS011;74539;43.518;1.504;2024-01-27T01:19:20;6.05;;;4.60;;
84355;SDS011;74539;43.518;1.504;2024-01-27T01:21:46;6.15;;;4.38;;
84355;SDS011;74539;43.518;1.504;2024-01-27T01:24:11;6.72;;;4.50;;
84355;SDS011;74539;43.518;1.504;2024-01-27T01:26:37;7.35;;;4.57;;
84355;SDS011;74539;43.518;1.504;2024-01-27T01:29:02;5.72;;;4.20;;
84355;SDS011;74539;43.518;1.504;2024-01-27T01:31:27;8.23;;;4.65;;
84355;SDS011;74539;43.518;1.504;2024-01-27T01:33:53;6.72;;;4.53;;
84355;SDS011;74539;43.518;1.504;2024-01-27T01:36:18;6.28;;;4.25;;
84355;SDS011;74539;43.518;1.504;2024-01-27T01:38:44;6.80;;;4.80;;
84355;SDS011;74539;43.518;1.504;2024-01-27T01:41:10;5.93;;;4.32;;
84355;SDS011;74539;43.518;1.504;2024-01-27T01:43:36;6.70;;;4.35;;
84355;SDS011;74539;43.518;1.504;2024-01-27T01:46:02;8.45;;;4.40;;
84355;SDS011;74539;43.518;1.504;2024-01-27T01:48:28;6.30;;;4.20;;
84355;SDS011;74539;43.518;1.504;2024-01-27T01:50:54;7.60;;;4.68;;
84355;SDS011;74539;43.518;1.504;2024-01-27T01:53:20;7.70;;;4.47;;
84355;SDS011;74539;43.518;1.504;2024-01-27T01:55:47;7.32;;;4.55;;
84355;SDS011;74539;43.518;1.504;2024-01-27T01:58:15;6.32;;;4.45;;
84355;SDS011;74539;43.518;1.504;2024-01-27T02:00:40;6.15;;;4.05;;
84355;SDS011;74539;43.518;1.504;2024-01-27T02:03:09;6.05;;;4.28;;
84355;SDS011;74539;43.518;1.504;2024-01-27T02:05:36;6.78;;;4.38;;
84355;SDS011;74539;43.518;1.504;2024-01-27T02:08:02;6.78;;;4.15;;
84355;SDS011;74539;43.518;1.504;2024-01-27T02:10:29;6.10;;;3.90;;
84355;SDS011;74539;43.518;1.504;2024-01-27T02:13:01;6.45;;;4.15;;
84355;SDS011;74539;43.518;1.504;2024-01-27T02:15:26;6.32;;;4.32;;
84355;SDS011;74539;43.518;1.504;2024-01-27T02:17:52;5.45;;;3.55;;
84355;SDS011;74539;43.518;1.504;2024-01-27T02:20:17;5.53;;;4.00;;
84355;SDS011;74539;43.518;1.504;2024-01-27T02:22:43;5.95;;;4.22;;
84355;SDS011;74539;43.518;1.504;2024-01-27T02:25:08;5.85;;;4.18;;
84355;SDS011;74539;43.518;1.504;2024-01-27T02:27:34;6.30;;;4.13;;
84355;SDS011;74539;43.518;1.504;2024-01-27T02:29:59;5.78;;;3.90;;
84355;SDS011;74539;43.518;1.504;2024-01-27T02:32:24;6.05;;;4.00;;
84355;SDS011;74539;43.518;1.504;2024-01-27T02:34:50;5.47;;;3.53;;
84355;SDS011;74539;43.518;1.504;2024-01-27T02:37:15;6.40;;;4.03;;
84355;SDS011;74539;43.518;1.504;2024-01-27T02:39:41;5.45;;;3.53;;
84355;SDS011;74539;43.518;1.504;2024-01-27T02:42:06;6.22;;;3.75;;
84355;SDS011;74539;43.518;1.504;2024-01-27T02:44:32;5.20;;;3.30;;
84355;SDS011;74539;43.518;1.504;2024-01-27T02:46:57;5.63;;;4.10;;
84355;SDS011;74539;43.518;1.504;2024-01-27T02:49:23;5.80;;;3.83;;
84355;SDS011;74539;43.518;1.504;2024-01-27T02:51:48;5.68;;;3.70;;
84355;SDS011;74539;43.518;1.504;2024-01-27T02:54:14;5.35;;;3.58;;
84355;SDS011;74539;43.518;1.504;2024-01-27T02:56:40;5.25;;;3.40;;
84355;SDS011;74539;43.518;1.504;2024-01-27T02:59:05;5.22;;;3.33;;
84355;SDS011;74539;43.518;1.504;2024-01-27T03:01:31;5.13;;;3.40;;
84355;SDS011;74539;43.518;1.504;2024-01-27T03:03:57;5.10;;;3.55;;
84355;SDS011;74539;43.518;1.504;2024-01-27T03:06:22;5.38;;;3.53;;
84355;SDS011;74539;43.518;1.504;2024-01-27T03:08:47;5.03;;;3.67;;
84355;SDS011;74539;43.518;1.504;2024-01-27T03:11:13;5.35;;;3.28;;
84355;SDS011;74539;43.518;1.504;2024-01-27T03:13:38;4.57;;;3.20;;
84355;SDS011;74539;43.518;1.504;2024-01-27T03:16:10;4.80;;;3.15;;
84355;SDS011;74539;43.518;1.504;2024-01-27T03:18:36;4.18;;;3.10;;
84355;SDS011;74539;43.518;1.504;2024-01-27T03:21:02;5.35;;;3.15;;
84355;SDS011;74539;43.518;1.504;2024-01-27T03:23:28;4.50;;;3.13;;
84355;SDS011;74539;43.518;1.504;2024-01-27T03:25:53;4.50;;;3.08;;
84355;SDS011;74539;43.518;1.504;2024-01-27T03:28:19;4.90;;;3.30;;
84355;SDS011;74539;43.518;1.504;2024-01-27T03:30:45;3.95;;;3.00;;
84355;SDS011;74539;43.518;1.504;2024-01-27T03:33:10;4.50;;;3.15;;
84355;SDS011;74539;43.518;1.504;2024-01-27T03:35:37;4.78;;;3.10;;
84355;SDS011;74539;43.518;1.504;2024-01-27T03:38:03;4.20;;;2.95;;
84355;SDS011;74539;43.518;1.504;2024-01-27T03:40:28;4.13;;;3.08;;
84355;SDS011;74539;43.518;1.504;2024-01-27T03:42:54;4.75;;;2.92;;
84355;SDS011;74539;43.518;1.504;2024-01-27T03:45:19;4.78;;;2.90;;
84355;SDS011;74539;43.518;1.504;2024-01-27T03:47:44;3.90;;;2.67;;
84355;SDS011;74539;43.518;1.504;2024-01-27T03:50:10;4.53;;;3.03;;
84355;SDS011;74539;43.518;1.504;2024-01-27T03:52:36;4.00;;;2.90;;
84355;SDS011;74539;43.518;1.504;2024-01-27T03:55:01;4.28;;;2.83;;
84355;SDS011;74539;43.518;1.504;2024-01-27T03:57:27;4.63;;;2.83;;
84355;SDS011;74539;43.518;1.504;2024-01-27T03:59:52;4.50;;;2.97;;
84355;SDS011;74539;43.518;1.504;2024-01-27T04:02:17;3.47;;;2.60;;
84355;SDS011;74539;43.518;1.504;2024-01-27T04:04:43;4.35;;;2.95;;
84355;SDS011;74539;43.518;1.504;2024-01-27T04:07:08;4.18;;;2.53;;
84355;SDS011;74539;43.518;1.504;2024-01-27T04:09:34;4.22;;;2.75;;
84355;SDS011;74539;43.518;1.504;2024-01-27T04:11:59;3.40;;;2.35;;
84355;SDS011;74539;43.518;1.504;2024-01-27T04:14:25;4.80;;;2.95;;
84355;SDS011;74539;43.518;1.504;2024-01-27T04:16:50;3.70;;;2.67;;
84355;SDS011;74539;43.518;1.504;2024-01-27T04:19:15;3.40;;;2.50;;
84355;SDS011;74539;43.518;1.504;2024-01-27T04:21:41;3.88;;;2.58;;
84355;SDS011;74539;43.518;1.504;2024-01-27T04:24:07;3.90;;;2.67;;
84355;SDS011;74539;43.518;1.504;2024-01-27T04:26:33;3.58;;;2.40;;
84355;SDS011;74539;43.518;1.504;2024-01-27T04:28:58;3.88;;;2.58;;
84355;SDS011;74539;43.518;1.504;2024-01-27T04:31:24;3.72;;;2.45;;
84355;SDS011;74539;43.518;1.504;2024-01-27T04:33:49;3.10;;;2.53;;
84355;SDS011;74539;43.518;1.504;2024-01-27T04:36:24;3.53;;;2.40;;
84355;SDS011;74539;43.518;1.504;2024-01-27T04:38:50;3.50;;;2.45;;
84355;SDS011;74539;43.518;1.504;2024-01-27T04:41:15;3.53;;;2.40;;
84355;SDS011;74539;43.518;1.504;2024-01-27T04:43:41;2.90;;;2.13;;
84355;SDS011;74539;43.518;1.504;2024-01-27T04:46:06;3.75;;;2.55;;
84355;SDS011;74539;43.518;1.504;2024-01-27T04:48:32;3.83;;;2.35;;
84355;SDS011;74539;43.518;1.504;2024-01-27T04:50:58;3.95;;;2.67;;
84355;SDS011;74539;43.518;1.504;2024-01-27T04:53:23;3.05;;;2.45;;
84355;SDS011;74539;43.518;1.504;2024-01-27T04:55:48;2.85;;;2.30;;
84355;SDS011;74539;43.518;1.504;2024-01-27T04:58:14;2.92;;;2.10;;
84355;SDS011;74539;43.518;1.504;2024-01-27T05:00:39;3.60;;;2.47;;
84355;SDS011;74539;43.518;1.504;2024-01-27T05:03:05;3.25;;;2.30;;
84355;SDS011;74539;43.518;1.504;2024-01-27T05:05:32;3.35;;;2.42;;
84355;SDS011;74539;43.518;1.504;2024-01-27T05:07:58;2.65;;;2.10;;
84355;SDS011;74539;43.518;1.504;2024-01-27T05:10:23;3.30;;;2.17;;
84355;SDS011;74539;43.518;1.504;2024-01-27T05:12:50;3.65;;;2.15;;
84355;SDS011;74539;43.518;1.504;2024-01-27T05:15:16;2.70;;;2.00;;
84355;SDS011;74539;43.518;1.504;2024-01-27T05:17:41;3.10;;;2.30;;
84355;SDS011;74539;43.518;1.504;2024-01-27T05:20:06;3.15;;;2.20;;
84355;SDS011;74539;43.518;1.504;2024-01-27T05:22:32;3.40;;;2.00;;
84355;SDS011;74539;43.518;1.504;2024-01-27T05:24:58;3.78;;;2.10;;
84355;SDS011;74539;43.518;1.504;2024-01-27T05:27:23;3.05;;;2.03;;
84355;SDS011;74539;43.518;1.504;2024-01-27T05:29:49;2.33;;;1.80;;
84355;SDS011;74539;43.518;1.504;2024-01-27T05:32:14;2.58;;;1.85;;
84355;SDS011;74539;43.518;1.504;2024-01-27T05:34:40;2.50;;;1.92;;
84355;SDS011;74539;43.518;1.504;2024-01-27T05:37:05;2.70;;;1.98;;
84355;SDS011;74539;43.518;1.504;2024-01-27T05:39:31;2.13;;;1.90;;
84355;SDS011;74539;43.518;1.504;2024-01-27T05:41:57;2.47;;;1.73;;
84355;SDS011;74539;43.518;1.504;2024-01-27T05:44:22;2.63;;;1.77;;
84355;SDS011;74539;43.518;1.504;2024-01-27T05:46:48;2.92;;;2.00;;
84355;SDS011;74539;43.518;1.504;2024-01-27T05:49:13;2.03;;;1.70;;
84355;SDS011;74539;43.518;1.504;2024-01-27T05:51:39;2.95;;;1.80;;
84355;SDS011;74539;43.518;1.504;2024-01-27T05:54:04;2.58;;;2.10;;
84355;SDS011;74539;43.518;1.504;2024-01-27T05:56:30;2.30;;;1.80;;
84355;SDS011;74539;43.518;1.504;2024-01-27T05:58:55;2.55;;;1.80;;
84355;SDS011;74539;43.518;1.504;2024-01-27T06:01:20;2.10;;;1.50;;
84355;SDS011;74539;43.518;1.504;2024-01-27T06:03:46;2.00;;;1.63;;
84355;SDS011;74539;43.518;1.504;2024-01-27T06:06:12;2.15;;;1.77;;
84355;SDS011;74539;43.518;1.504;2024-01-27T06:08:37;1.80;;;1.60;;
84355;SDS011;74539;43.518;1.504;2024-01-27T06:11:03;2.65;;;1.80;;
84355;SDS011;74539;43.518;1.504;2024-01-27T06:13:28;2.28;;;1.60;;
84355;SDS011;74539;43.518;1.504;2024-01-27T06:15:54;2.08;;;1.52;;
84355;SDS011;74539;43.518;1.504;2024-01-27T06:18:19;2.25;;;1.60;;
84355;SDS011;74539;43.518;1.504;2024-01-27T06:20:45;2.58;;;1.63;;
84355;SDS011;74539;43.518;1.504;2024-01-27T06:23:11;2.17;;;1.67;;
84355;SDS011;74539;43.518;1.504;2024-01-27T06:25:36;2.38;;;1.60;;
84355;SDS011;74539;43.518;1.504;2024-01-27T06:28:02;2.08;;;1.60;;
84355;SDS011;74539;43.518;1.504;2024-01-27T06:30:27;1.92;;;1.58;;
84355;SDS011;74539;43.518;1.504;2024-01-27T06:32:53;3.10;;;1.45;;
84355;SDS011;74539;43.518;1.504;2024-01-27T06:35:18;2.05;;;1.48;;
84355;SDS011;74539;43.518;1.504;2024-01-27T06:37:44;1.73;;;1.40;;
84355;SDS011;74539;43.518;1.504;2024-01-27T06:40:09;2.03;;;1.50;;
84355;SDS011;74539;43.518;1.504;2024-01-27T06:42:35;2.05;;;1.40;;
84355;SDS011;74539;43.518;1.504;2024-01-27T06:45:01;2.25;;;1.52;;
84355;SDS011;74539;43.518;1.504;2024-01-27T06:47:26;1.67;;;1.40;;
84355;SDS011;74539;43.518;1.504;2024-01-27T06:49:52;2.15;;;1.45;;
84355;SDS011;74539;43.518;1.504;2024-01-27T06:52:17;2.17;;;1.52;;
84355;SDS011;74539;43.518;1.504;2024-01-27T06:54:43;1.95;;;1.35;;
84355;SDS011;74539;43.518;1.504;2024-01-27T06:57:21;1.55;;;1.30;;
84355;SDS011;74539;43.518;1.504;2024-01-27T06:59:48;1.60;;;1.20;;
84355;SDS011;74539;43.518;1.504;2024-01-27T07:02:27;1.70;;;1.33;;
84355;SDS011;74539;43.518;1.504;2024-01-27T07:04:56;1.38;;;1.27;;
84355;SDS011;74539;43.518;1.504;2024-01-27T07:07:25;1.50;;;1.20;;
84355;SDS011;74539;43.518;1.504;2024-01-27T07:09:55;1.23;;;1.10;;
84355;SDS011;74539;43.518;1.504;2024-01-27T07:12:21;1.45;;;1.30;;
84355;SDS011;74539;43.518;1.504;2024-01-27T07:14:46;1.40;;;1.10;;
84355;SDS011;74539;43.518;1.504;2024-01-27T07:17:12;1.50;;;1.10;;
84355;SDS011;74539;43.518;1.504;2024-01-27T07:19:37;1.92;;;1.30;;
84355;SDS011;74539;43.518;1.504;2024-01-27T07:22:03;1.20;;;1.10;;
84355;SDS011;74539;43.518;1.504;2024-01-27T07:24:31;1.20;;;1.10;;
84355;SDS011;74539;43.518;1.504;2024-01-27T07:26:57;1.30;;;1.20;;
84355;SDS011;74539;43.518;1.504;2024-01-27T07:29:25;1.00;;;0.90;;
84355;SDS011;74539;43.518;1.504;2024-01-27T07:31:51;1.42;;;1.00;;
84355;SDS011;74539;43.518;1.504;2024-01-27T07:34:16;1.42;;;1.00;;
84355;SDS011;74539;43.518;1.504;2024-01-27T07:36:42;1.42;;;1.00;;
84355;SDS011;74539;43.518;1.504;2024-01-27T07:39:08;1.20;;;1.00;;
84355;SDS011;74539;43.518;1.504;2024-01-27T07:41:34;1.05;;;0.80;;
84355;SDS011;74539;43.518;1.504;2024-01-27T07:46:38;1.38;;;0.98;;
84355;SDS011;74539;43.518;1.504;2024-01-27T07:49:03;1.30;;;1.00;;
84355;SDS011;74539;43.518;1.504;2024-01-27T07:51:29;1.00;;;0.90;;
84355;SDS011;74539;43.518;1.504;2024-01-27T07:53:55;1.23;;;0.98;;
84355;SDS011;74539;43.518;1.504;2024-01-27T07:56:20;1.17;;;0.90;;
84355;SDS011;74539;43.518;1.504;2024-01-27T07:58:46;1.30;;;0.90;;
84355;SDS011;74539;43.518;1.504;2024-01-27T08:01:14;1.45;;;1.10;;
84355;SDS011;74539;43.518;1.504;2024-01-27T08:03:40;1.60;;;0.90;;
84355;SDS011;74539;43.518;1.504;2024-01-27T08:06:06;0.80;;;0.80;;
84355;SDS011;74539;43.518;1.504;2024-01-27T08:08:35;0.85;;;0.85;;
84355;SDS011;74539;43.518;1.504;2024-01-27T08:11:00;1.02;;;0.82;;
84355;SDS011;74539;43.518;1.504;2024-01-27T08:13:25;0.80;;;0.75;;
84355;SDS011;74539;43.518;1.504;2024-01-27T08:15:51;1.00;;;0.85;;
84355;SDS011;74539;43.518;1.504;2024-01-27T08:18:16;1.40;;;1.00;;
84355;SDS011;74539;43.518;1.504;2024-01-27T08:20:42;1.15;;;0.90;;
84355;SDS011;74539;43.518;1.504;2024-01-27T08:23:07;0.85;;;0.80;;
84355;SDS011;74539;43.518;1.504;2024-01-27T08:25:33;1.50;;;0.90;;
84355;SDS011;74539;43.518;1.504;2024-01-27T08:27:59;1.05;;;0.93;;
84355;SDS011;74539;43.518;1.504;2024-01-27T08:30:24;1.00;;;0.90;;
84355;SDS011;74539;43.518;1.504;2024-01-27T08:32:49;1.05;;;0.82;;
84355;SDS011;74539;43.518;1.504;2024-01-27T08:35:15;0.70;;;0.70;;
84355;SDS011;74539;43.518;1.504;2024-01-27T08:37:40;1.00;;;0.80;;
84355;SDS011;74539;43.518;1.504;2024-01-27T08:40:06;0.68;;;0.60;;
84355;SDS011;74539;43.518;1.504;2024-01-27T08:42:32;0.80;;;0.60;;
84355;SDS011;74539;43.518;1.504;2024-01-27T08:44:58;0.80;;;0.80;;
84355;SDS011;74539;43.518;1.504;2024-01-27T08:47:23;0.90;;;0.80;;
84355;SDS011;74539;43.518;1.504;2024-01-27T08:49:48;0.70;;;0.70;;
84355;SDS011;74539;43.518;1.504;2024-01-27T08:52:14;0.90;;;0.80;;
84355;SDS011;74539;43.518;1.504;2024-01-27T08:54:40;0.77;;;0.60;;
84355;SDS011;74539;43.518;1.504;2024-01-27T08:57:06;0.95;;;0.73;;
84355;SDS011;74539;43.518;1.504;2024-01-27T08:59:31;0.98;;;0.80;;
84355;SDS011;74539;43.518;1.504;2024-01-27T09:01:57;1.00;;;0.80;;
84355;SDS011;74539;43.518;1.504;2024-01-27T09:04:22;0.90;;;0.80;;
84355;SDS011;74539;43.518;1.504;2024-01-27T09:06:48;1.10;;;0.70;;
84355;SDS011;74539;43.518;1.504;2024-01-27T09:09:13;0.73;;;0.68;;
84355;SDS011;74539;43.518;1.504;2024-01-27T09:11:38;0.80;;;0.70;;
84355;SDS011;74539;43.518;1.504;2024-01-27T09:14:04;0.85;;;0.80;;
84355;SDS011;74539;43.518;1.504;2024-01-27T09:16:32;0.63;;;0.63;;
84355;SDS011;74539;43.518;1.504;2024-01-27T09:18:57;0.85;;;0.68;;
84355;SDS011;74539;43.518;1.504;2024-01-27T09:21:23;1.10;;;0.80;;
84355;SDS011;74539;43.518;1.504;2024-01-27T09:23:53;0.80;;;0.70;;
84355;SDS011;74539;43.518;1.504;2024-01-27T09:26:19;0.80;;;0.70;;
84355;SDS011;74539;43.518;1.504;2024-01-27T09:28:45;0.52;;;0.50;;
84355;SDS011;74539;43.518;1.504;2024-01-27T09:31:18;0.90;;;0.80;;
84355;SDS011;74539;43.518;1.504;2024-01-27T09:33:46;1.02;;;0.80;;
84355;SDS011;74539;43.518;1.504;2024-01-27T09:36:13;0.80;;;0.70;;
84355;SDS011;74539;43.518;1.504;2024-01-27T09:38:38;0.68;;;0.63;;
84355;SDS011;74539;43.518;1.504;2024-01-27T09:41:03;0.90;;;0.70;;
84355;SDS011;74539;43.518;1.504;2024-01-27T09:43:29;0.82;;;0.70;;
84355;SDS011;74539;43.518;1.504;2024-01-27T09:45:56;0.90;;;0.70;;
84355;SDS011;74539;43.518;1.504;2024-01-27T09:48:21;0.95;;;0.80;;
84355;SDS011;74539;43.518;1.504;2024-01-27T09:50:47;0.70;;;0.70;;
84355;SDS011;74539;43.518;1.504;2024-01-27T09:53:14;1.00;;;0.70;;
84355;SDS011;74539;43.518;1.504;2024-01-27T09:55:40;0.98;;;0.70;;
84355;SDS011;74539;43.518;1.504;2024-01-27T09:58:05;0.80;;;0.80;;
84355;SDS011;74539;43.518;1.504;2024-01-27T10:00:32;0.77;;;0.65;;
84355;SDS011;74539;43.518;1.504;2024-01-27T10:02:59;0.80;;;0.80;;
84355;SDS011;74539;43.518;1.504;2024-01-27T10:05:25;0.90;;;0.80;;
84355;SDS011;74539;43.518;1.504;2024-01-27T10:07:52;1.08;;;0.88;;
84355;SDS011;74539;43.518;1.504;2024-01-27T10:10:17;0.80;;;0.70;;
84355;SDS011;74539;43.518;1.504;2024-01-27T10:12:43;1.10;;;0.77;;
84355;SDS011;74539;43.518;1.504;2024-01-27T10:15:18;1.17;;;0.90;;
84355;SDS011;74539;43.518;1.504;2024-01-27T10:17:47;0.90;;;0.77;;
84355;SDS011;74539;43.518;1.504;2024-01-27T10:20:13;2.05;;;1.00;;
84355;SDS011;74539;43.518;1.504;2024-01-27T10:22:40;1.20;;;0.80;;
84355;SDS011;74539;43.518;1.504;2024-01-27T10:25:07;1.08;;;0.80;;
84355;SDS011;74539;43.518;1.504;2024-01-27T10:27:34;1.27;;;0.90;;
84355;SDS011;74539;43.518;1.504;2024-01-27T10:30:00;1.08;;;0.80;;
84355;SDS011;74539;43.518;1.504;2024-01-27T10:32:26;1.00;;;0.90;;
84355;SDS011;74539;43.518;1.504;2024-01-27T10:35:04;0.80;;;0.77;;
84355;SDS011;74539;43.518;1.504;2024-01-27T10:37:30;0.98;;;0.80;;
84355;SDS011;74539;43.518;1.504;2024-01-27T10:40:06;1.00;;;0.80;;
84355;SDS011;74539;43.518;1.504;2024-01-27T10:42:33;0.90;;;0.70;;
84355;SDS011;74539;43.518;1.504;2024-01-27T10:45:00;1.42;;;0.90;;
84355;SDS011;74539;43.518;1.504;2024-01-27T10:47:30;1.05;;;0.90;;
84355;SDS011;74539;43.518;1.504;2024-01-27T10:49:58;0.80;;;0.70;;
84355;SDS011;74539;43.518;1.504;2024-01-27T10:52:25;0.85;;;0.70;;
84355;SDS011;74539;43.518;1.504;2024-01-27T10:54:58;1.08;;;0.70;;
84355;SDS011;74539;43.518;1.504;2024-01-27T10:57:28;1.10;;;0.70;;
84355;SDS011;74539;43.518;1.504;2024-01-27T10:59:55;0.98;;;0.90;;
84355;SDS011;74539;43.518;1.504;2024-01-27T11:02:22;0.70;;;0.70;;
84355;SDS011;74539;43.518;1.504;2024-01-27T11:04:49;1.10;;;0.90;;
84355;SDS011;74539;43.518;1.504;2024-01-27T11:07:17;0.88;;;0.80;;
84355;SDS011;74539;43.518;1.504;2024-01-27T11:09:45;1.00;;;0.90;;
84355;SDS011;74539;43.518;1.504;2024-01-27T11:12:12;1.00;;;0.80;;
84355;SDS011;74539;43.518;1.504;2024-01-27T11:14:38;1.05;;;0.80;;
84355;SDS011;74539;43.518;1.504;2024-01-27T11:17:03;0.75;;;0.75;;
84355;SDS011;74539;43.518;1.504;2024-01-27T11:19:29;0.70;;;0.70;;
84355;SDS011;74539;43.518;1.504;2024-01-27T11:22:01;0.95;;;0.80;;
84355;SDS011;74539;43.518;1.504;2024-01-27T11:24:28;1.10;;;0.95;;
84355;SDS011;74539;43.518;1.504;2024-01-27T11:27:03;1.13;;;0.85;;
84355;SDS011;74539;43.518;1.504;2024-01-27T11:29:30;0.75;;;0.70;;
84355;SDS011;74539;43.518;1.504;2024-01-27T11:31:59;0.80;;;0.80;;
84355;SDS011;74539;43.518;1.504;2024-01-27T11:34:27;1.10;;;1.00;;
84355;SDS011;74539;43.518;1.504;2024-01-27T11:36:52;1.25;;;0.82;;
84355;SDS011;74539;43.518;1.504;2024-01-27T11:39:28;1.00;;;0.82;;
84355;SDS011;74539;43.518;1.504;2024-01-27T11:42:06;1.38;;;0.95;;
84355;SDS011;74539;43.518;1.504;2024-01-27T11:44:38;1.00;;;0.75;;
84355;SDS011;74539;43.518;1.504;2024-01-27T11:47:05;1.35;;;0.82;;
84355;SDS011;74539;43.518;1.504;2024-01-27T11:49:32;0.80;;;0.80;;
84355;SDS011;74539;43.518;1.504;2024-01-27T11:51:58;0.93;;;0.80;;
84355;SDS011;74539;43.518;1.504;2024-01-27T11:54:23;1.20;;;0.80;;
84355;SDS011;74539;43.518;1.504;2024-01-27T11:56:49;1.10;;;0.90;;
84355;SDS011;74539;43.518;1.504;2024-01-27T11:59:14;1.20;;;1.00;;
84355;SDS011;74539;43.518;1.504;2024-01-27T12:01:40;0.80;;;0.80;;
84355;SDS011;74539;43.518;1.504;2024-01-27T12:04:06;0.90;;;0.85;;
84355;SDS011;74539;43.518;1.504;2024-01-27T12:06:32;1.23;;;0.90;;
84355;SDS011;74539;43.518;1.504;2024-01-27T12:08:57;0.77;;;0.77;;
84355;SDS011;74539;43.518;1.504;2024-01-27T12:11:26;1.33;;;1.00;;
84355;SDS011;74539;43.518;1.504;2024-01-27T12:13:52;1.00;;;0.88;;
84355;SDS011;74539;43.518;1.504;2024-01-27T12:16:18;1.00;;;0.80;;
84355;SDS011;74539;43.518;1.504;2024-01-27T12:18:44;1.20;;;0.90;;
84355;SDS011;74539;43.518;1.504;2024-01-27T12:21:10;1.08;;;0.90;;
84355;SDS011;74539;43.518;1.504;2024-01-27T12:23:35;0.70;;;0.70;;
84355;SDS011;74539;43.518;1.504;2024-01-27T12:26:01;1.60;;;1.00;;
84355;SDS011;74539;43.518;1.504;2024-01-27T12:28:27;1.20;;;0.95;;
84355;SDS011;74539;43.518;1.504;2024-01-27T12:30:52;1.40;;;0.88;;
84355;SDS011;74539;43.518;1.504;2024-01-27T12:33:19;1.27;;;1.00;;
84355;SDS011;74539;43.518;1.504;2024-01-27T12:35:49;1.50;;;1.08;;
84355;SDS011;74539;43.518;1.504;2024-01-27T12:38:17;1.10;;;0.98;;
84355;SDS011;74539;43.518;1.504;2024-01-27T12:40:43;1.50;;;1.20;;
84355;SDS011;74539;43.518;1.504;2024-01-27T12:43:09;1.65;;;1.20;;
84355;SDS011;74539;43.518;1.504;2024-01-27T12:45:34;1.23;;;1.00;;
84355;SDS011;74539;43.518;1.504;2024-01-27T12:48:00;1.20;;;1.10;;
84355;SDS011;74539;43.518;1.504;2024-01-27T12:50:27;1.35;;;0.93;;
84355;SDS011;74539;43.518;1.504;2024-01-27T12:52:52;1.10;;;1.00;;
84355;SDS011;74539;43.518;1.504;2024-01-27T12:55:19;1.67;;;1.20;;
84355;SDS011;74539;43.518;1.504;2024-01-27T12:57:46;1.10;;;1.00;;
84355;SDS011;74539;43.518;1.504;2024-01-27T13:00:12;2.08;;;1.33;;
84355;SDS011;74539;43.518;1.504;2024-01-27T13:02:37;1.23;;;1.10;;
84355;SDS011;74539;43.518;1.504;2024-01-27T13:05:04;1.20;;;1.10;;
84355;SDS011;74539;43.518;1.504;2024-01-27T13:07:30;1.27;;;1.10;;
84355;SDS011;74539;43.518;1.504;2024-01-27T13:09:56;1.63;;;1.15;;
84355;SDS011;74539;43.518;1.504;2024-01-27T13:12:21;2.63;;;1.42;;
84355;SDS011;74539;43.518;1.504;2024-01-27T13:14:47;2.00;;;1.45;;
84355;SDS011;74539;43.518;1.504;2024-01-27T13:17:13;1.50;;;1.20;;
84355;SDS011;74539;43.518;1.504;2024-01-27T13:19:39;1.45;;;1.20;;
84355;SDS011;74539;43.518;1.504;2024-01-27T13:22:06;1.75;;;1.30;;
84355;SDS011;74539;43.518;1.504;2024-01-27T13:24:31;1.92;;;1.40;;
84355;SDS011;74539;43.518;1.504;2024-01-27T13:26:58;1.45;;;1.27;;
84355;SDS011;74539;43.518;1.504;2024-01-27T13:29:23;2.35;;;1.42;;
84355;SDS011;74539;43.518;1.504;2024-01-27T13:31:49;2.35;;;1.20;;
84355;SDS011;74539;43.518;1.504;2024-01-27T13:34:15;1.60;;;1.40;;
84355;SDS011;74539;43.518;1.504;2024-01-27T13:36:40;2.22;;;1.23;;
84355;SDS011;74539;43.518;1.504;2024-01-27T13:39:06;1.75;;;1.23;;
84355;SDS011;74539;43.518;1.504;2024-01-27T13:41:31;1.30;;;1.20;;
84355;SDS011;74539;43.518;1.504;2024-01-27T13:43:57;2.20;;;1.60;;
84355;SDS011;74539;43.518;1.504;2024-01-27T13:46:22;2.10;;;1.30;;
84355;SDS011;74539;43.518;1.504;2024-01-27T13:48:51;1.67;;;1.42;;
84355;SDS011;74539;43.518;1.504;2024-01-27T13:51:16;2.00;;;1.40;;
84355;SDS011;74539;43.518;1.504;2024-01-27T13:53:41;2.22;;;1.40;;
84355;SDS011;74539;43.518;1.504;2024-01-27T13:56:07;1.65;;;1.33;;
84355;SDS011;74539;43.518;1.504;2024-01-27T13:58:32;2.78;;;1.70;;
84355;SDS011;74539;43.518;1.504;2024-01-27T14:00:58;1.85;;;1.25;;
84355;SDS011;74539;43.518;1.504;2024-01-27T14:03:23;2.20;;;1.17;;
84355;SDS011;74539;43.518;1.504;2024-01-27T14:05:49;1.73;;;1.23;;
84355;SDS011;74539;43.518;1.504;2024-01-27T14:08:15;1.80;;;1.20;;
84355;SDS011;74539;43.518;1.504;2024-01-27T14:10:42;2.15;;;1.25;;
84355;SDS011;74539;43.518;1.504;2024-01-27T14:13:08;2.33;;;1.60;;
84355;SDS011;74539;43.518;1.504;2024-01-27T14:15:37;3.28;;;1.42;;
84355;SDS011;74539;43.518;1.504;2024-01-27T14:18:03;1.70;;;1.45;;
84355;SDS011;74539;43.518;1.504;2024-01-27T14:20:31;1.90;;;1.55;;
84355;SDS011;74539;43.518;1.504;2024-01-27T14:22:58;1.77;;;1.35;;
84355;SDS011;74539;43.518;1.504;2024-01-27T14:25:24;2.60;;;1.50;;
84355;SDS011;74539;43.518;1.504;2024-01-27T14:27:49;2.22;;;1.83;;
84355;SDS011;74539;43.518;1.504;2024-01-27T14:30:15;3.17;;;1.80;;
84355;SDS011;74539;43.518;1.504;2024-01-27T14:32:40;3.72;;;2.00;;
84355;SDS011;74539;43.518;1.504;2024-01-27T14:35:06;2.65;;;1.80;;
84355;SDS011;74539;43.518;1.504;2024-01-27T14:37:32;3.17;;;2.10;;
84355;SDS011;74539;43.518;1.504;2024-01-27T14:39:58;3.45;;;1.80;;
84355;SDS011;74539;43.518;1.504;2024-01-27T14:42:23;2.85;;;2.00;;
84355;SDS011;74539;43.518;1.504;2024-01-27T14:44:49;3.42;;;1.90;;